KIND/IND METAR and TAF weather

Enter ICAO airport designator
Station Type Date Time Source
KIND METAR 2020/01/28 11:54 UTC NOAA

KIND 281154Z 29005KT 8SM FEW008 OVC018 M01/M02 A3007 RMK AO2 SLP190 T10


Station Type Date Time Source
KIND Decoded METAR 2020/01/28 11:54 UTC NOAA

INDIANAPOLIS INTERNATIONAL AIRPORT , IN, United States (KIND) 39-43N 86-17W 242M
Jan 28, 2020 - 06:54 AM EST / 2020.01.28 1154 UTC
Wind: from the WNW (290 degrees) at 6 MPH (5 KT):0
Visibility: 8 mile(s):0
Sky conditions: overcast
Temperature: 30.9 F (-0.6 C)
Windchill: 24 F (-4 C):1
Dew Point: 28.0 F (-2.2 C)
Relative Humidity: 88%
Pressure (altimeter): 30.07 in. Hg (1018 hPa)
Pressure tendency: 0.01 inches (0.3 hPa) higher than three hours ago
ob: KIND 281154Z 29005KT 8SM FEW008 OVC018 M01/M02 A3007 RMK AO2 SLP190 T10061022 11006 21006 53003
cycle: 12

Station Type Date Time Source
KIND TAF 2020/01/28 12:22 UTC NOAA

TAF KIND 281120Z 2812/2918 VRB04KT P6SM SCT008 OVC015
FM282100 27005KT P6SM OVC015
FM290800 VRB03KT 5SM BR OVC009

Example: see airport list